Time;durP1;ratioP1;P1;durP2;ratioP2;P2;SDS_P1;SDS_P2;PMS_P1;PMS_P2;Temp;Humidity;BMP_temperature;BMP_pressure;BME280_temperature;BME280_humidity;BME280_pressure;Samples;Min_cycle;Max_cycle;Signal;HPM_P1;HPM_P2
2022/08/11 00:01:16;;;;;;;;;;;;;;;17.56;56.90;101219.13;5109414;28;19919;-71
2022/08/11 00:04:21;;;;;;;;;;;;;;;17.46;56.66;101226.00;5088663;28;19989;-71
2022/08/11 00:07:25;;;;;;;;;;;;;;;17.44;56.48;101221.66;5088747;28;19919;-71
2022/08/11 00:10:28;;;;;;;;;;;;;;;17.40;56.29;101220.19;5088632;28;19969;-72
2022/08/11 00:13:34;;;;;;;;;;;;;;;17.31;57.05;101215.53;5088682;28;20300;-71
2022/08/11 00:16:38;;;;;;;;;;;;;;;17.19;57.75;101216.38;5109171;28;19918;-71
2022/08/11 00:19:44;;;;;;;;;;;;;;;17.19;58.33;101219.03;5109249;28;19965;-71
2022/08/11 00:22:48;;;;;;;;;;;;;;;17.06;58.56;101226.13;5109219;28;19985;-71
2022/08/11 00:25:52;;;;;;;;;;;;;;;17.06;58.40;101220.81;5108721;28;19934;-71
2022/08/11 00:28:55;;;;;;;;;;;;;;;17.01;58.87;101226.44;5108783;28;19922;-71
2022/08/11 00:32:00;;;;;;;;;;;;;;;17.00;58.49;101227.38;5108789;28;20000;-71
2022/08/11 00:35:06;;;;;;;;;;;;;;;16.95;58.53;101225.06;5108572;28;19990;-73
2022/08/11 00:38:10;;;;;;;;;;;;;;;16.98;58.25;101223.16;5108464;28;19991;-71
2022/08/11 00:41:32;;;;;;;;;;;;;;;16.95;58.71;101234.78;5108311;28;19919;-72
2022/08/11 00:44:37;;;;;;;;;;;;;;;16.95;59.37;101235.63;5107501;28;19923;-72
2022/08/11 00:47:48;;;;;;;;;;;;;;;16.95;58.90;101229.50;5108556;28;19922;-72
2022/08/11 00:51:05;;;;;;;;;;;;;;;16.95;58.85;101227.69;5101373;28;19928;-71
2022/08/11 00:54:29;;;;;;;;;;;;;;;16.88;58.98;101233.47;5108524;28;19919;-71
2022/08/11 00:57:52;;;;;;;;;;;;;;;16.73;58.89;101235.34;5108598;28;19956;-71
2022/08/11 01:01:05;;;;;;;;;;;;;;;16.64;59.04;101236.78;5108517;28;19934;-72
2022/08/11 01:04:23;;;;;;;;;;;;;;;16.56;59.35;101235.59;5112037;28;19934;-71
2022/08/11 01:07:45;;;;;;;;;;;;;;;16.47;60.03;101230.00;5099851;28;20401;-71
2022/08/11 01:11:01;;;;;;;;;;;;;;;16.45;60.47;101236.31;5112041;28;19947;-71
2022/08/11 01:14:25;;;;;;;;;;;;;;;16.45;60.62;101236.31;5111535;28;20015;-71
2022/08/11 01:17:38;;;;;;;;;;;;;;;16.54;60.29;101234.88;5112088;28;20429;-72
2022/08/11 01:20:44;;;;;;;;;;;;;;;16.54;59.97;101242.78;5111866;28;19922;-73
2022/08/11 01:23:56;;;;;;;;;;;;;;;16.49;60.27;101241.28;5111950;28;19958;-71
2022/08/11 01:27:12;;;;;;;;;;;;;;;16.40;60.81;101244.56;5099680;28;20338;-72
2022/08/11 01:30:28;;;;;;;;;;;;;;;16.42;60.14;101244.44;5111755;28;20023;-71
2022/08/11 01:33:34;;;;;;;;;;;;;;;16.34;59.88;101244.09;5111452;28;19972;-72
2022/08/11 01:36:47;;;;;;;;;;;;;;;16.21;60.10;101241.41;5111341;28;19919;-71
2022/08/11 01:40:09;;;;;;;;;;;;;;;16.22;60.55;101243.94;5112043;28;20439;-71
2022/08/11 01:47:05;;;;;;;;;;;;;;;16.22;60.65;101251.84;5111171;28;19968;-72
2022/08/11 01:50:15;;;;;;;;;;;;;;;16.16;61.00;101256.69;5110777;28;20430;-71
2022/08/11 01:53:37;;;;;;;;;;;;;;;16.15;60.98;101255.00;5111011;28;19993;-71
2022/08/11 01:56:49;;;;;;;;;;;;;;;16.05;61.18;101254.75;5111218;28;20412;-71
2022/08/11 01:59:55;;;;;;;;;;;;;;;16.09;61.22;101255.38;5112024;28;19926;-71
2022/08/11 02:03:09;;;;;;;;;;;;;;;16.08;61.50;101256.31;5096884;28;19934;-71
2022/08/11 02:14:03;;;;;;;;;;;;;;;15.84;62.36;101262.19;5109826;28;19965;-71
2022/08/11 02:17:16;;;;;;;;;;;;;;;15.64;62.46;101263.41;5110940;28;19936;-71
2022/08/11 02:23:46;;;;;;;;;;;;;;;15.71;62.49;101266.53;5110622;28;19922;-71
2022/08/11 02:26:56;;;;;;;;;;;;;;;15.70;62.60;101265.72;5097327;28;19919;-72
2022/08/11 02:30:06;;;;;;;;;;;;;;;15.62;62.69;101267.06;5097687;28;20383;-71
2022/08/11 02:33:25;;;;;;;;;;;;;;;15.57;63.10;101262.06;5110244;28;19934;-71
2022/08/11 02:36:37;;;;;;;;;;;;;;;15.74;62.70;101261.94;5110250;28;20019;-71
2022/08/11 02:39:45;;;;;;;;;;;;;;;15.55;62.93;101270.09;5110514;28;19977;-71
2022/08/11 02:43:01;;;;;;;;;;;;;;;15.49;63.25;101262.56;5110498;28;20344;-71
2022/08/11 02:46:04;;;;;;;;;;;;;;;15.46;63.26;101264.53;5110145;28;20326;-71
2022/08/11 02:52:58;;;;;;;;;;;;;;;15.33;63.74;101267.06;5109912;28;20273;-71
2022/08/11 02:56:17;;;;;;;;;;;;;;;15.25;63.77;101267.53;5110445;28;20380;-71
2022/08/11 02:59:51;;;;;;;;;;;;;;;15.17;64.18;101276.84;5109486;28;19922;-71
2022/08/11 03:03:11;;;;;;;;;;;;;;;15.21;64.35;101267.81;5089489;28;19919;-71
2022/08/11 03:06:28;;;;;;;;;;;;;;;15.10;64.43;101264.03;5089290;28;19993;-71
2022/08/11 03:09:38;;;;;;;;;;;;;;;15.10;64.87;101264.03;5089912;28;19919;-71
2022/08/11 03:19:58;;;;;;;;;;;;;;;15.17;64.35;101261.03;5109524;28;20434;-71
2022/08/11 03:23:01;;;;;;;;;;;;;;;15.10;64.66;101261.38;5109491;28;19922;-71
2022/08/11 03:26:08;;;;;;;;;;;;;;;15.21;64.52;101258.09;5108679;28;19973;-71
2022/08/11 03:29:12;;;;;;;;;;;;;;;15.10;64.48;101260.53;5108755;28;19919;-71
2022/08/11 03:32:25;;;;;;;;;;;;;;;14.93;65.04;101258.03;5109386;28;20304;-71
2022/08/11 03:35:34;;;;;;;;;;;;;;;14.83;65.51;101266.47;5109553;28;19954;-72
2022/08/11 03:38:54;;;;;;;;;;;;;;;14.81;65.19;101267.53;5108847;28;20384;-71
2022/08/11 03:42:09;;;;;;;;;;;;;;;14.72;65.65;101261.00;5109419;28;20006;-71
2022/08/11 03:45:18;;;;;;;;;;;;;;;14.67;65.83;101267.47;5109896;28;19957;-71
2022/08/11 03:48:30;;;;;;;;;;;;;;;14.56;66.35;101263.66;5109948;28;19961;-71
2022/08/11 03:51:53;;;;;;;;;;;;;;;14.57;66.18;101268.00;5109815;28;19922;-71
2022/08/11 03:55:15;;;;;;;;;;;;;;;14.64;66.15;101268.47;5108879;28;20029;-70
2022/08/11 03:58:21;;;;;;;;;;;;;;;14.59;66.06;101271.38;5109012;28;20328;-70
2022/08/11 04:01:43;;;;;;;;;;;;;;;14.47;66.79;101266.78;5109359;28;19918;-71
2022/08/11 04:04:55;;;;;;;;;;;;;;;14.56;66.67;101270.72;5109199;28;19958;-71
2022/08/11 04:08:17;;;;;;;;;;;;;;;14.49;66.77;101269.34;5108859;28;19922;-73
2022/08/11 04:11:35;;;;;;;;;;;;;;;14.42;66.70;101268.81;5108778;28;20598;-72
2022/08/11 04:18:26;;;;;;;;;;;;;;;14.38;67.07;101267.31;5108589;28;19946;-72
2022/08/11 04:21:36;;;;;;;;;;;;;;;14.19;67.65;101270.13;5109846;28;19919;-71
2022/08/11 04:25:08;;;;;;;;;;;;;;;14.19;67.75;101276.22;5109434;28;19918;-71
2022/08/11 04:28:30;;;;;;;;;;;;;;;14.26;67.48;101278.50;5081947;28;19918;-72
2022/08/11 04:31:39;;;;;;;;;;;;;;;14.51;66.58;101273.59;5108058;28;19919;-71
2022/08/11 04:34:54;;;;;;;;;;;;;;;14.36;67.24;101285.81;5108506;28;19919;-71
2022/08/11 04:38:14;;;;;;;;;;;;;;;14.50;66.92;101282.41;5111805;28;19939;-71
2022/08/11 04:43:19;;;;;;;;;;;;;;;14.35;67.25;101273.59;5112216;28;19984;-71
2022/08/11 04:45:10;;;;;;;;;;;;;;;14.26;67.61;101278.50;5112360;28;20335;-70
2022/08/11 05:02:42;;;;;;;;;;;;;;;14.47;67.32;101282.56;5111591;28;19918;-68
2022/08/11 05:05:52;;;;;;;;;;;;;;;14.57;66.97;101286.41;5111887;28;19919;-69
2022/08/11 05:09:14;;;;;;;;;;;;;;;14.21;68.71;101297.19;5111554;28;19918;-69
2022/08/11 05:12:19;;;;;;;;;;;;;;;14.19;68.68;101293.78;5112252;28;20459;-68
2022/08/11 05:37:32;;;;;;;;;;;;;;;14.89;65.92;101299.50;5111180;28;19947;-71
2022/08/11 05:57:54;;;;;;;;;;;;;;;15.88;60.33;101316.44;5090908;28;19926;-71
2022/08/11 06:00:58;;;;;;;;;;;;;;;15.66;61.23;101310.75;5091063;28;19972;-71
2022/08/11 06:04:14;;;;;;;;;;;;;;;15.67;61.41;101312.50;5090492;28;19919;-71
2022/08/11 06:07:25;;;;;;;;;;;;;;;15.64;62.47;101318.78;5119311;27;19918;-70
2022/08/11 06:10:32;;;;;;;;;;;;;;;15.83;61.34;101309.78;5091337;28;19968;-70
2022/08/11 06:13:43;;;;;;;;;;;;;;;15.93;61.30;101305.63;5091214;28;19919;-71
2022/08/11 06:16:47;;;;;;;;;;;;;;;16.23;59.96;101294.91;5090738;28;19918;-70
2022/08/11 06:19:58;;;;;;;;;;;;;;;16.39;59.32;101310.63;5092067;28;20577;-71
2022/08/11 06:23:05;;;;;;;;;;;;;;;16.32;59.94;101304.03;5111053;28;20044;-70
2022/08/11 06:26:11;;;;;;;;;;;;;;;16.49;58.63;101309.91;5110792;28;19918;-71
2022/08/11 06:29:17;;;;;;;;;;;;;;;16.74;58.39;101303.88;5111008;28;19919;-71
2022/08/11 06:32:23;;;;;;;;;;;;;;;16.81;58.91;101296.44;5110178;28;19923;-71
2022/08/11 06:35:44;;;;;;;;;;;;;;;17.03;58.27;101300.28;5110077;28;20295;-70
2022/08/11 06:38:55;;;;;;;;;;;;;;;17.09;58.80;101311.31;5110874;28;19963;-70
2022/08/11 06:42:21;;;;;;;;;;;;;;;17.24;59.05;101303.31;5110481;28;19961;-68
2022/08/11 06:45:27;;;;;;;;;;;;;;;17.33;58.84;101303.53;5109964;28;19957;-70
2022/08/11 06:48:32;;;;;;;;;;;;;;;17.51;58.64;101300.56;5110017;28;20368;-70
2022/08/11 06:51:37;;;;;;;;;;;;;;;17.69;57.48;101306.38;5109911;28;19919;-70
2022/08/11 06:54:43;;;;;;;;;;;;;;;17.85;57.38;101299.91;5110651;28;20051;-70
2022/08/11 07:01:12;;;;;;;;;;;;;;;18.12;56.85;101296.25;5108956;28;19937;-70
2022/08/11 07:04:42;;;;;;;;;;;;;;;18.11;56.91;101286.63;5109070;28;20014;-70
2022/08/11 07:28:54;;;;;;;;;;;;;;;19.51;48.63;101256.69;5109799;28;20383;-70
2022/08/11 07:32:02;;;;;;;;;;;;;;;19.70;47.92;101255.28;5108372;28;20422;-70
2022/08/11 07:35:13;;;;;;;;;;;;;;;19.84;47.28;101256.81;5109208;28;19918;-69
2022/08/11 07:38:22;;;;;;;;;;;;;;;19.92;47.43;101249.09;5108424;28;19984;-69
2022/08/11 07:41:27;;;;;;;;;;;;;;;19.99;47.50;101252.94;5109426;28;19968;-70
2022/08/11 07:48:10;;;;;;;;;;;;;;;20.13;47.13;101249.16;5108992;28;19923;-69
2022/08/11 07:54:42;;;;;;;;;;;;;;;20.54;45.42;101240.50;5109243;28;19972;-69
2022/08/11 08:18:03;;;;;;;;;;;;;;;21.18;44.33;101241.34;5112205;28;19926;-68
2022/08/11 08:21:13;;;;;;;;;;;;;;;21.43;44.30;101238.28;5112555;28;19973;-68
2022/08/11 08:24:19;;;;;;;;;;;;;;;21.63;44.37;101239.22;5112695;28;19927;-70
2022/08/11 08:27:24;;;;;;;;;;;;;;;21.94;43.74;101234.69;5111561;28;19974;-70
2022/08/11 08:30:46;;;;;;;;;;;;;;;21.94;44.22;101226.69;5111070;28;19911;-67
2022/08/11 08:33:50;;;;;;;;;;;;;;;22.08;42.82;101228.16;5114009;28;19965;-70
2022/08/11 08:36:53;;;;;;;;;;;;;;;22.12;42.77;101226.06;5114638;28;20457;-69
2022/08/11 08:39:57;;;;;;;;;;;;;;;22.14;42.94;101222.25;5116281;28;20057;-70
2022/08/11 08:43:04;;;;;;;;;;;;;;;22.31;42.59;101218.09;5115008;28;20331;-69
2022/08/11 08:46:09;;;;;;;;;;;;;;;22.27;42.47;101216.69;5115904;28;20018;-72
2022/08/11 08:49:15;;;;;;;;;;;;;;;22.25;41.47;101216.00;5116234;28;19922;-73
2022/08/11 08:52:22;;;;;;;;;;;;;;;22.73;40.76;101207.97;5119946;27;19968;-70
2022/08/11 08:55:27;;;;;;;;;;;;;;;22.64;41.40;101213.31;5123947;27;19999;-72
2022/08/11 08:58:33;;;;;;;;;;;;;;;22.73;41.84;101212.47;5115868;28;19937;-71
2022/08/11 09:01:42;;;;;;;;;;;;;;;22.98;40.33;101206.56;5115691;28;19965;-69
2022/08/11 09:04:47;;;;;;;;;;;;;;;23.39;39.78;101203.63;5115926;28;19956;-69
2022/08/11 09:07:53;;;;;;;;;;;;;;;23.37;39.42;101206.44;5101707;28;19942;-71
2022/08/11 09:14:22;;;;;;;;;;;;;;;23.75;37.80;101207.25;5115729;28;19971;-70
2022/08/11 09:17:26;;;;;;;;;;;;;;;23.84;38.14;101197.53;5115679;28;19918;-70
2022/08/11 09:20:33;;;;;;;;;;;;;;;23.90;38.13;101195.09;5114476;28;20119;-69
2022/08/11 09:27:03;;;;;;;;;;;;;;;23.59;39.24;101193.69;5115130;28;20361;-71
2022/08/11 09:30:07;;;;;;;;;;;;;;;24.01;38.35;101182.50;5115191;28;19918;-72
2022/08/11 09:33:12;;;;;;;;;;;;;;;24.34;37.04;101179.13;5115332;28;20364;-71
2022/08/11 09:46:27;;;;;;;;;;;;;;;24.73;35.86;101152.06;5115020;28;19923;-70
2022/08/11 09:49:31;;;;;;;;;;;;;;;24.54;36.08;101149.59;5114876;28;19918;-68
2022/08/11 09:52:39;;;;;;;;;;;;;;;24.86;34.87;101156.16;5114903;28;19919;-71
2022/08/11 09:55:44;;;;;;;;;;;;;;;24.82;35.33;101140.44;5114226;28;19918;-68
2022/08/11 09:58:47;;;;;;;;;;;;;;;24.97;34.95;101140.66;5113957;28;20011;-69
2022/08/11 10:01:58;;;;;;;;;;;;;;;25.32;33.00;101127.31;5113442;28;20292;-69
2022/08/11 10:08:27;;;;;;;;;;;;;;;25.56;31.70;101138.09;5114541;28;19923;-71
2022/08/11 10:11:33;;;;;;;;;;;;;;;25.52;31.09;101134.06;5114489;28;19918;-68
2022/08/11 10:21:39;;;;;;;;;;;;;;;25.76;31.38;101135.97;5114419;28;19965;-69
2022/08/11 10:28:07;;;;;;;;;;;;;;;25.91;31.39;101136.16;5114596;28;20264;-71
2022/08/11 10:34:31;;;;;;;;;;;;;;;25.81;30.90;101119.41;5114048;28;19972;-68
2022/08/11 10:37:36;;;;;;;;;;;;;;;25.92;32.25;101119.94;5113954;28;19918;-70
2022/08/11 10:40:40;;;;;;;;;;;;;;;26.16;29.70;101111.09;5113790;28;19960;-69
2022/08/11 10:43:43;;;;;;;;;;;;;;;26.03;31.72;101110.72;5113490;28;19979;-69
2022/08/11 11:00:23;;;;;;;;;;;;;;;26.37;31.05;101101.69;5113637;28;19923;-69
2022/08/11 11:03:27;;;;;;;;;;;;;;;26.21;30.81;101091.81;5113522;28;20316;-70
2022/08/11 11:06:42;;;;;;;;;;;;;;;26.19;30.82;101091.97;5113554;28;20288;-70
2022/08/11 11:09:47;;;;;;;;;;;;;;;26.06;29.86;101074.72;5100719;28;19919;-69
2022/08/11 11:19:48;;;;;;;;;;;;;;;26.71;29.73;101081.84;5063432;28;20014;-70
2022/08/11 11:22:54;;;;;;;;;;;;;;;26.48;30.44;101066.50;5113248;28;19934;-70
2022/08/11 11:26:08;;;;;;;;;;;;;;;26.16;29.77;101076.25;5113087;28;19918;-68
2022/08/11 11:29:19;;;;;;;;;;;;;;;26.34;30.70;101068.00;5113169;28;19918;-70
2022/08/11 11:32:28;;;;;;;;;;;;;;;26.69;30.39;101071.31;5113096;28;20342;-72
2022/08/11 11:35:51;;;;;;;;;;;;;;;26.63;29.22;101051.38;5100382;28;19957;-71
2022/08/11 11:38:57;;;;;;;;;;;;;;;26.65;29.82;101048.53;5112868;28;19922;-71
2022/08/11 11:42:08;;;;;;;;;;;;;;;26.96;29.91;101053.91;5112597;28;19935;-72
2022/08/11 11:45:13;;;;;;;;;;;;;;;27.29;28.20;101043.91;5112000;28;20042;-67
2022/08/11 11:48:16;;;;;;;;;;;;;;;26.95;29.52;101038.84;5111851;28;19972;-69
2022/08/11 11:51:20;;;;;;;;;;;;;;;27.15;29.39;101033.91;5112726;28;19918;-70
2022/08/11 11:54:25;;;;;;;;;;;;;;;27.13;29.58;101034.09;5112620;28;20004;-69
2022/08/11 12:04:14;;;;;;;;;;;;;;;27.20;29.48;101020.81;5112747;28;19926;-71
2022/08/11 12:14:23;;;;;;;;;;;;;;;27.30;28.93;100999.09;5112663;28;19922;-69
2022/08/11 12:17:26;;;;;;;;;;;;;;;27.41;29.23;101008.56;5112795;28;20280;-79
2022/08/11 12:20:31;;;;;;;;;;;;;;;27.73;27.43;100999.44;5112427;28;19922;-79
2022/08/11 12:30:19;;;;;;;;;;;;;;;27.81;28.34;101005.59;5112701;28;20028;-65
2022/08/11 12:33:22;;;;;;;;;;;;;;;27.59;28.57;100999.19;5112319;28;19965;-68
2022/08/11 12:36:26;;;;;;;;;;;;;;;27.77;27.11;100977.44;5112351;28;19918;-69
2022/08/11 12:46:33;;;;;;;;;;;;;;;28.57;25.95;100964.34;5112405;28;19923;-69
2022/08/11 12:53:06;;;;;;;;;;;;;;;29.20;25.45;100965.53;5112298;28;19937;-69
2022/08/11 13:06:17;;;;;;;;;;;;;;;29.90;24.21;100939.63;5115892;28;20360;-69
2022/08/11 13:09:20;;;;;;;;;;;;;;;30.06;24.01;100938.47;5115878;28;19964;-69
2022/08/11 13:15:47;;;;;;;;;;;;;;;30.52;23.34;100932.50;5115707;28;19922;-70
2022/08/11 13:18:50;;;;;;;;;;;;;;;30.80;23.03;100935.13;5103004;28;20033;-69
2022/08/11 13:22:20;;;;;;;;;;;;;;;30.83;23.40;100926.63;5115491;28;19922;-70
2022/08/11 13:25:25;;;;;;;;;;;;;;;30.91;23.45;100937.22;5102801;28;20312;-68
2022/08/11 13:28:29;;;;;;;;;;;;;;;30.70;22.89;100930.09;5114950;28;20328;-69
2022/08/11 13:31:33;;;;;;;;;;;;;;;31.33;22.65;100913.63;5113365;28;19964;-68
2022/08/11 13:34:41;;;;;;;;;;;;;;;31.79;21.54;100911.97;5114397;28;20399;-68
2022/08/11 13:37:49;;;;;;;;;;;;;;;32.32;21.79;100918.06;5115310;28;19935;-68
2022/08/11 13:40:57;;;;;;;;;;;;;;;32.63;21.04;100909.22;5115126;28;20323;-68
2022/08/11 13:44:03;;;;;;;;;;;;;;;32.85;20.42;100901.59;5114828;28;20026;-69
2022/08/11 13:47:07;;;;;;;;;;;;;;;33.47;20.19;100909.06;5115000;28;19935;-69
2022/08/11 13:50:15;;;;;;;;;;;;;;;34.40;19.42;100892.69;5115018;28;20011;-69
2022/08/11 13:53:20;;;;;;;;;;;;;;;34.73;19.17;100888.72;5103162;28;19930;-69
2022/08/11 13:56:25;;;;;;;;;;;;;;;35.61;17.99;100908.88;5114991;28;19957;-69
2022/08/11 13:59:29;;;;;;;;;;;;;;;37.46;15.93;100881.44;5114601;28;20006;-68
2022/08/11 14:02:33;;;;;;;;;;;;;;;39.56;14.42;100879.09;5114664;28;20502;-68
2022/08/11 14:05:39;;;;;;;;;;;;;;;40.66;13.44;100859.84;5114636;28;19996;-70
2022/08/11 14:08:42;;;;;;;;;;;;;;;40.82;13.01;100868.91;5114591;28;19937;-70
2022/08/11 14:15:27;;;;;;;;;;;;;;;41.55;12.70;100854.88;5114460;28;19919;-74
2022/08/11 14:18:31;;;;;;;;;;;;;;;42.40;12.43;100853.13;5114668;28;19922;-71
2022/08/11 14:24:57;;;;;;;;;;;;;;;40.77;12.34;100852.44;5101903;28;20041;-71
2022/08/11 14:28:02;;;;;;;;;;;;;;;40.86;12.56;100844.50;5114221;28;19919;-69
2022/08/11 14:31:06;;;;;;;;;;;;;;;41.95;12.16;100830.28;5113959;28;19954;-70
2022/08/11 14:34:11;;;;;;;;;;;;;;;43.68;11.00;100839.06;5114185;28;19957;-71
2022/08/11 14:37:18;;;;;;;;;;;;;;;42.24;12.39;100825.72;5114081;28;19918;-69
2022/08/11 14:47:06;;;;;;;;;;;;;;;41.81;12.07;100822.66;5113831;28;19957;-69
2022/08/11 14:50:17;;;;;;;;;;;;;;;41.38;12.28;100817.81;5101429;28;19919;-69
2022/08/11 14:53:22;;;;;;;;;;;;;;;42.54;12.03;100810.16;5113945;28;20288;-69
2022/08/11 14:56:35;;;;;;;;;;;;;;;42.46;11.78;100800.59;5098435;28;20004;-69
2022/08/11 14:59:39;;;;;;;;;;;;;;;43.04;11.46;100799.00;5092015;28;19923;-70
2022/08/11 15:06:07;;;;;;;;;;;;;;;42.32;11.50;100801.53;5092527;28;19919;-70
2022/08/11 15:09:14;;;;;;;;;;;;;;;40.20;13.43;100804.13;5093310;28;19952;-70
2022/08/11 15:12:18;;;;;;;;;;;;;;;40.38;12.79;100806.34;5093418;28;19934;-69
2022/08/11 15:18:42;;;;;;;;;;;;;;;41.97;12.11;100786.91;5092871;28;20231;-70
2022/08/11 15:25:08;;;;;;;;;;;;;;;42.10;12.27;100789.00;5093130;28;19974;-69
2022/08/11 15:38:23;;;;;;;;;;;;;;;40.44;13.14;100779.78;5092819;28;20277;-70
2022/08/11 15:48:47;;;;;;;;;;;;;;;38.30;14.79;100776.63;5092571;28;20400;-70
2022/08/11 15:52:01;;;;;;;;;;;;;;;38.53;14.27;100770.84;5092629;28;19965;-70
2022/08/11 15:55:06;;;;;;;;;;;;;;;37.91;15.11;100772.13;5092339;28;19980;-69
2022/08/11 16:05:00;;;;;;;;;;;;;;;39.12;13.99;100760.91;5091007;28;20445;-70
2022/08/11 16:08:04;;;;;;;;;;;;;;;39.23;14.44;100757.16;5090870;28;20046;-70
2022/08/11 16:11:08;;;;;;;;;;;;;;;37.59;14.43;100758.34;5090867;28;19965;-69
2022/08/11 16:17:39;;;;;;;;;;;;;;;38.46;14.54;100742.09;5092632;28;19954;-69
2022/08/11 16:20:45;;;;;;;;;;;;;;;36.71;15.21;100747.22;5092555;28;19923;-70
2022/08/11 16:23:49;;;;;;;;;;;;;;;36.39;15.68;100730.59;5091917;28;19919;-69
2022/08/11 16:26:54;;;;;;;;;;;;;;;35.51;16.71;100740.00;5091607;28;19919;-69
2022/08/11 16:29:57;;;;;;;;;;;;;;;33.69;18.42;100738.69;5092052;28;19918;-69
2022/08/11 16:33:03;;;;;;;;;;;;;;;33.20;19.77;100745.91;5093938;28;19966;-69
2022/08/11 16:39:29;;;;;;;;;;;;;;;32.80;19.73;100736.25;5095787;28;20277;-69
2022/08/11 16:49:19;;;;;;;;;;;;;;;31.96;21.19;100740.09;5096023;28;19969;-70
2022/08/11 16:52:22;;;;;;;;;;;;;;;31.92;21.82;100728.06;5095672;28;19919;-70
2022/08/11 16:55:30;;;;;;;;;;;;;;;31.43;21.69;100734.88;5095719;28;19919;-70
2022/08/11 17:01:58;;;;;;;;;;;;;;;31.22;22.43;100731.38;5095465;28;20404;-70
2022/08/11 17:19:00;;;;;;;;;;;;;;;30.01;26.05;100736.00;5095094;28;19923;-70
2022/08/11 17:25:31;;;;;;;;;;;;;;;29.56;26.78;100730.19;5095092;28;19941;-70
2022/08/11 17:28:35;;;;;;;;;;;;;;;29.60;26.04;100729.63;5094874;28;20056;-70
2022/08/11 17:38:26;;;;;;;;;;;;;;;29.22;27.38;100720.25;5094730;28;20449;-69
2022/08/11 17:48:25;;;;;;;;;;;;;;;29.30;26.97;100726.34;5094664;28;20301;-69
2022/08/11 18:01:37;;;;;;;;;;;;;;;28.40;29.39;100744.00;5094318;28;20485;-69
2022/08/11 18:04:42;;;;;;;;;;;;;;;28.36;30.11;100741.84;5093907;28;19919;-68
